Time;durP1;ratioP1;P1;durP2;ratioP2;P2;SDS_P1;SDS_P2;PMS_P1;PMS_P2;Temp;Humidity;BMP_temperature;BMP_pressure;BME280_temperature;BME280_humidity;BME280_pressure;Samples;Min_cycle;Max_cycle;Signal;HPM_P1;HPM_P2
2022/12/21 00:00:09;;;;;;;;;;;;;;;7.94;59.89;100162.28;5035968;28;19925;-59
2022/12/21 00:02:35;;;;;;;;;;;;;;;7.93;60.02;100147.47;5041985;28;19925;-58
2022/12/21 00:05:00;;;;;;;;;;;;;;;7.96;59.68;100158.78;5042167;28;19932;-58
2022/12/21 00:07:25;;;;;;;;;;;;;;;7.98;59.41;100158.75;5036818;28;19929;-58
2022/12/21 00:09:50;;;;;;;;;;;;;;;8.10;59.18;100146.38;5035028;28;19925;-59
2022/12/21 00:12:16;;;;;;;;;;;;;;;7.98;59.42;100146.56;5038638;28;19995;-58
2022/12/21 00:14:41;;;;;;;;;;;;;;;7.98;59.50;100154.41;5039843;28;19940;-58
2022/12/21 00:17:06;;;;;;;;;;;;;;;8.07;59.27;100145.53;5043475;28;19968;-58
2022/12/21 00:19:32;;;;;;;;;;;;;;;7.99;59.48;100155.25;5052582;28;19925;-58
2022/12/21 00:21:57;;;;;;;;;;;;;;;7.76;59.94;100148.59;5037777;28;19936;-59
2022/12/21 00:24:22;;;;;;;;;;;;;;;7.82;59.89;100145.91;5046858;28;19972;-58
2022/12/21 00:26:47;;;;;;;;;;;;;;;7.88;59.84;100142.31;5038827;28;20011;-58
2022/12/21 00:29:13;;;;;;;;;;;;;;;7.97;59.76;100141.31;5039601;28;19925;-58
2022/12/21 00:31:39;;;;;;;;;;;;;;;7.77;59.78;100144.22;5037334;28;19988;-58
2022/12/21 00:34:04;;;;;;;;;;;;;;;7.99;59.69;100142.19;5039452;28;19925;-59
2022/12/21 00:36:30;;;;;;;;;;;;;;;8.05;59.50;100142.06;5040273;28;19921;-59
2022/12/21 00:38:56;;;;;;;;;;;;;;;7.95;59.66;100145.72;5036598;28;19921;-59
2022/12/21 00:41:21;;;;;;;;;;;;;;;7.76;60.02;100147.72;5051173;28;19987;-59
2022/12/21 00:43:49;;;;;;;;;;;;;;;7.88;60.02;100137.09;5048658;28;19921;-59
2022/12/21 00:46:16;;;;;;;;;;;;;;;7.83;59.87;100147.63;5038204;28;19921;-58
2022/12/21 00:48:41;;;;;;;;;;;;;;;7.95;59.54;100140.50;5038603;28;20297;-58
2022/12/21 00:51:08;;;;;;;;;;;;;;;7.90;59.73;100137.94;5036228;28;19929;-59
2022/12/21 00:53:34;;;;;;;;;;;;;;;7.74;60.20;100136.41;5051081;28;19925;-58
2022/12/21 00:56:00;;;;;;;;;;;;;;;7.90;59.97;100143.19;5053504;28;19928;-58
2022/12/21 00:58:26;;;;;;;;;;;;;;;7.98;59.59;100136.09;5044158;28;19932;-58
2022/12/21 01:00:53;;;;;;;;;;;;;;;7.97;59.72;100134.34;5037281;28;19925;-59
2022/12/21 01:03:18;;;;;;;;;;;;;;;8.04;59.68;100135.13;5039990;28;19925;-59
2022/12/21 01:05:47;;;;;;;;;;;;;;;8.07;59.56;100135.94;5046839;28;19994;-59
2022/12/21 01:08:12;;;;;;;;;;;;;;;8.14;59.55;100132.34;5052237;28;19921;-60
2022/12/21 01:10:38;;;;;;;;;;;;;;;8.12;59.60;100134.09;5052514;28;19925;-60
2022/12/21 01:13:03;;;;;;;;;;;;;;;8.19;59.61;100134.03;5040161;28;19932;-60
2022/12/21 01:15:28;;;;;;;;;;;;;;;7.98;60.16;100128.25;5045104;28;19932;-58
2022/12/21 01:17:54;;;;;;;;;;;;;;;7.60;61.30;100129.63;5050817;28;19925;-60
2022/12/21 01:20:19;;;;;;;;;;;;;;;7.77;61.21;100125.91;5049178;28;20380;-59
2022/12/21 01:22:44;;;;;;;;;;;;;;;7.80;61.18;100131.09;5052309;28;19928;-59
2022/12/21 01:25:09;;;;;;;;;;;;;;;7.68;61.80;100133.91;5050338;28;19929;-59
2022/12/21 01:27:35;;;;;;;;;;;;;;;7.72;61.58;100132.97;5050702;28;20435;-58
2022/12/21 01:30:00;;;;;;;;;;;;;;;7.79;61.49;100126.78;5042876;28;19925;-58
2022/12/21 01:32:26;;;;;;;;;;;;;;;7.67;61.70;100119.09;5043632;28;19924;-59
2022/12/21 01:34:51;;;;;;;;;;;;;;;7.62;62.11;100125.25;5052516;28;20404;-59
2022/12/21 01:37:16;;;;;;;;;;;;;;;7.71;61.96;100112.94;5049954;28;19932;-59
2022/12/21 01:39:41;;;;;;;;;;;;;;;7.55;62.65;100118.38;5043393;28;19925;-59
2022/12/21 01:42:10;;;;;;;;;;;;;;;7.70;62.36;100109.47;5038212;28;19944;-60
2022/12/21 01:44:54;;;;;;;;;;;;;;;7.86;61.94;100115.34;5051308;28;19921;-59
2022/12/21 01:47:21;;;;;;;;;;;;;;;7.75;62.23;100106.78;5039110;28;19928;-58
2022/12/21 01:49:58;;;;;;;;;;;;;;;7.81;62.24;100093.59;5044221;28;19920;-58
2022/12/21 01:52:24;;;;;;;;;;;;;;;7.92;62.07;100102.16;5042145;28;19936;-59
2022/12/21 01:54:50;;;;;;;;;;;;;;;7.82;62.16;100097.94;5052460;28;19921;-58
2022/12/21 01:57:16;;;;;;;;;;;;;;;7.74;62.57;100102.41;5050919;28;20305;-59
2022/12/21 01:59:43;;;;;;;;;;;;;;;7.83;62.58;100091.84;5047910;28;19925;-59
2022/12/21 02:02:11;;;;;;;;;;;;;;;7.78;62.65;100098.88;5050179;28;19967;-59
2022/12/21 02:04:37;;;;;;;;;;;;;;;7.88;62.54;100100.47;5046005;28;20343;-57
2022/12/21 02:07:02;;;;;;;;;;;;;;;7.94;62.66;100091.66;5050298;28;19925;-59
2022/12/21 02:09:30;;;;;;;;;;;;;;;7.86;62.93;100091.78;5047010;28;19933;-60
2022/12/21 02:11:57;;;;;;;;;;;;;;;7.86;63.12;100094.41;5045015;28;19964;-58
2022/12/21 02:14:22;;;;;;;;;;;;;;;7.94;62.89;100089.94;5050304;28;19917;-59
2022/12/21 02:16:59;;;;;;;;;;;;;;;7.94;62.87;100091.66;5049848;28;19932;-58
2022/12/21 02:19:43;;;;;;;;;;;;;;;7.90;63.13;100085.63;5049362;28;19960;-58
2022/12/21 02:22:12;;;;;;;;;;;;;;;7.95;62.99;100083.81;5047578;28;19947;-58
2022/12/21 02:24:40;;;;;;;;;;;;;;;7.98;63.15;100085.47;5042627;28;19928;-59
2022/12/21 02:27:05;;;;;;;;;;;;;;;8.08;62.94;100087.09;5050076;28;19992;-59
2022/12/21 02:29:57;;;;;;;;;;;;;;;8.00;63.18;100094.19;5048767;28;20380;-58
2022/12/21 02:32:22;;;;;;;;;;;;;;;8.06;62.88;100089.72;5024186;28;19921;-58
2022/12/21 02:34:47;;;;;;;;;;;;;;;7.99;63.10;100090.72;5038342;28;20310;-59
2022/12/21 02:37:28;;;;;;;;;;;;;;;7.89;63.61;100081.25;5039583;28;19939;-59
2022/12/21 02:39:53;;;;;;;;;;;;;;;8.06;63.25;100076.66;5049982;28;19921;-58
2022/12/21 02:45:42;;;;;;;;;;;;;;;8.04;63.21;100075.78;5040776;28;19967;-59
2022/12/21 02:48:13;;;;;;;;;;;;;;;8.02;63.29;100067.13;5037065;28;20387;-59
2022/12/21 02:50:39;;;;;;;;;;;;;;;7.93;63.55;100069.88;5040245;28;19964;-59
2022/12/21 02:53:07;;;;;;;;;;;;;;;7.86;63.89;100083.94;5036521;28;20015;-57
2022/12/21 02:55:32;;;;;;;;;;;;;;;7.94;63.83;100087.31;5044055;28;20025;-59
2022/12/21 02:58:14;;;;;;;;;;;;;;;7.97;63.67;100068.06;5040550;28;19972;-59
2022/12/21 03:01:00;;;;;;;;;;;;;;;7.87;64.03;100063.00;5036195;28;19921;-59
2022/12/21 03:03:49;;;;;;;;;;;;;;;7.81;64.34;100070.06;5036941;28;19921;-59
2022/12/21 03:06:38;;;;;;;;;;;;;;;7.73;64.38;100077.16;5047846;28;19921;-59
2022/12/21 03:09:12;;;;;;;;;;;;;;;7.63;64.65;100061.59;5030166;28;19917;-59
2022/12/21 03:11:56;;;;;;;;;;;;;;;7.85;64.15;100066.50;5035578;28;19971;-59
2022/12/21 03:14:39;;;;;;;;;;;;;;;7.82;64.20;100066.53;5037283;28;19920;-58
2022/12/21 03:17:14;;;;;;;;;;;;;;;8.00;63.64;100061.03;5052934;28;19927;-58
2022/12/21 03:19:39;;;;;;;;;;;;;;;8.03;63.57;100061.00;5052568;28;19920;-58
2022/12/21 03:22:09;;;;;;;;;;;;;;;8.07;63.46;100062.66;5050612;28;19928;-59
2022/12/21 03:24:41;;;;;;;;;;;;;;;8.13;63.30;100054.69;5047914;28;19921;-58
2022/12/21 03:27:24;;;;;;;;;;;;;;;8.02;63.69;100056.66;5045222;28;19929;-57
2022/12/21 03:29:53;;;;;;;;;;;;;;;8.09;63.51;100053.03;5043181;28;19925;-58
2022/12/21 03:32:22;;;;;;;;;;;;;;;8.12;63.33;100058.22;5037439;28;20319;-58
2022/12/21 03:34:51;;;;;;;;;;;;;;;8.10;63.28;100059.16;5036051;28;19991;-57
2022/12/21 03:37:23;;;;;;;;;;;;;;;8.07;63.32;100052.19;5047361;28;19959;-58
2022/12/21 03:39:52;;;;;;;;;;;;;;;7.99;63.76;100056.69;5035822;28;19964;-58
2022/12/21 03:42:23;;;;;;;;;;;;;;;7.88;64.12;100049.00;5036067;28;19944;-58
2022/12/21 03:44:56;;;;;;;;;;;;;;;7.94;63.90;100049.78;5036490;28;19966;-58
2022/12/21 03:47:24;;;;;;;;;;;;;;;7.96;63.74;100053.25;5042965;28;19924;-58
2022/12/21 03:50:10;;;;;;;;;;;;;;;8.02;63.64;100045.28;5049268;28;20482;-58
2022/12/21 03:52:49;;;;;;;;;;;;;;;8.11;63.53;100042.56;5048241;28;20068;-59
2022/12/21 03:55:20;;;;;;;;;;;;;;;8.22;63.22;100044.97;5038625;28;19921;-60
2022/12/21 03:57:46;;;;;;;;;;;;;;;8.17;63.08;100038.94;5035492;28;19921;-60
2022/12/21 04:00:12;;;;;;;;;;;;;;;8.27;63.03;100037.91;5035968;28;19932;-60
2022/12/21 04:02:49;;;;;;;;;;;;;;;8.15;63.06;100039.84;5048262;28;19932;-59
2022/12/21 04:05:24;;;;;;;;;;;;;;;8.30;62.71;100043.09;5047149;28;19928;-60
2022/12/21 04:07:50;;;;;;;;;;;;;;;8.08;63.06;100037.38;5044023;28;19933;-60
2022/12/21 04:10:18;;;;;;;;;;;;;;;8.10;63.15;100052.16;5047230;28;19959;-58
2022/12/21 04:12:46;;;;;;;;;;;;;;;8.09;63.16;100049.53;5049045;28;20011;-59
2022/12/21 04:15:16;;;;;;;;;;;;;;;8.16;62.87;100048.56;5049117;28;20011;-59
2022/12/21 04:17:42;;;;;;;;;;;;;;;8.27;62.59;100038.78;5049764;28;19920;-59
2022/12/21 04:20:12;;;;;;;;;;;;;;;8.26;62.49;100038.78;5034610;28;19925;-58
2022/12/21 04:28:23;;;;;;;;;;;;;;;8.32;62.13;100034.31;5048192;28;20434;-58
2022/12/21 04:30:49;;;;;;;;;;;;;;;8.30;62.31;100037.88;5034166;28;19925;-58
2022/12/21 04:33:15;;;;;;;;;;;;;;;8.31;62.02;100034.34;5046823;28;19928;-58
2022/12/21 04:37:30;;;;;;;;;;;;;;;8.28;62.16;100030.03;5040145;28;19922;-60
2022/12/21 04:38:27;;;;;;;;;;;;;;;8.24;62.43;100030.97;5047082;28;19929;-59
2022/12/21 04:40:53;;;;;;;;;;;;;;;8.21;62.41;100022.31;5049580;28;19968;-59
2022/12/21 04:43:19;;;;;;;;;;;;;;;8.18;62.21;100022.34;5047176;28;19959;-59
2022/12/21 04:45:44;;;;;;;;;;;;;;;8.27;62.15;100006.50;5042097;28;19967;-59
2022/12/21 04:48:10;;;;;;;;;;;;;;;8.11;62.41;100016.38;5047887;28;19921;-58
2022/12/21 04:50:37;;;;;;;;;;;;;;;8.09;62.43;100016.38;5036339;28;19990;-58
2022/12/21 04:53:02;;;;;;;;;;;;;;;8.24;62.13;100023.13;5035157;28;19927;-58
2022/12/21 04:55:28;;;;;;;;;;;;;;;8.25;61.98;100030.06;5041941;28;19929;-58
2022/12/21 04:57:53;;;;;;;;;;;;;;;8.14;62.27;100022.44;5051029;28;20278;-59
2022/12/21 05:00:18;;;;;;;;;;;;;;;8.25;62.01;100022.22;5049302;28;19940;-59
2022/12/21 05:02:44;;;;;;;;;;;;;;;8.27;61.88;100023.06;5051372;28;19924;-60
2022/12/21 05:05:09;;;;;;;;;;;;;;;8.21;61.88;100019.69;5047759;28;19968;-59
2022/12/21 05:07:34;;;;;;;;;;;;;;;8.14;61.99;100022.44;5050650;28;20012;-59
2022/12/21 05:09:59;;;;;;;;;;;;;;;7.96;62.62;100022.72;5053109;28;19996;-58
2022/12/21 05:12:25;;;;;;;;;;;;;;;8.04;62.59;100014.75;5050565;28;19929;-59
2022/12/21 05:14:50;;;;;;;;;;;;;;;8.02;62.64;100016.50;5048389;28;19932;-58
2022/12/21 05:17:15;;;;;;;;;;;;;;;8.13;62.62;100014.59;5050555;28;19933;-59
2022/12/21 05:19:41;;;;;;;;;;;;;;;8.09;62.62;100012.91;5038163;28;20285;-59
2022/12/21 05:22:06;;;;;;;;;;;;;;;8.15;62.41;100007.59;5048959;28;19929;-57
2022/12/21 05:24:31;;;;;;;;;;;;;;;8.08;62.74;100009.44;5041515;28;19925;-60
2022/12/21 05:26:56;;;;;;;;;;;;;;;8.19;62.67;100011.03;5038680;28;19956;-58
2022/12/21 05:29:22;;;;;;;;;;;;;;;8.23;62.53;100012.69;5039682;28;19979;-60
2022/12/21 05:31:47;;;;;;;;;;;;;;;8.10;62.76;100010.28;5042932;28;20400;-58
2022/12/21 05:34:12;;;;;;;;;;;;;;;8.08;62.99;100013.81;5054033;28;19932;-58
2022/12/21 05:36:37;;;;;;;;;;;;;;;8.21;62.60;100017.06;5041954;28;19982;-59
2022/12/21 05:39:03;;;;;;;;;;;;;;;8.24;62.51;100014.41;5051928;28;19925;-60
2022/12/21 05:41:28;;;;;;;;;;;;;;;8.26;62.47;100015.22;5044528;28;19998;-59
2022/12/21 05:43:54;;;;;;;;;;;;;;;8.11;62.70;100025.09;5039451;28;19921;-60
2022/12/21 05:46:20;;;;;;;;;;;;;;;8.15;62.75;100029.38;5047666;28;19974;-57
2022/12/21 05:48:45;;;;;;;;;;;;;;;7.96;63.08;100021.88;5042997;28;20327;-60
2022/12/21 05:51:11;;;;;;;;;;;;;;;8.00;63.14;100013.94;5039556;28;20012;-60
2022/12/21 05:53:39;;;;;;;;;;;;;;;8.08;62.91;100021.66;5036850;28;19925;-59
2022/12/21 05:56:05;;;;;;;;;;;;;;;8.12;62.81;100016.34;5035909;28;19917;-59
2022/12/21 05:58:30;;;;;;;;;;;;;;;8.18;62.62;100011.88;5043054;28;20007;-59
2022/12/21 06:00:58;;;;;;;;;;;;;;;8.10;62.35;100015.53;5033925;28;19937;-59
2022/12/21 06:03:24;;;;;;;;;;;;;;;8.07;62.48;100015.56;5041391;28;20396;-59
2022/12/21 06:05:49;;;;;;;;;;;;;;;8.12;62.45;100018.09;5035814;28;19933;-58
2022/12/21 06:08:14;;;;;;;;;;;;;;;8.06;62.47;100019.09;5054146;28;19931;-58
2022/12/21 06:10:40;;;;;;;;;;;;;;;8.07;62.40;100017.31;5040888;28;20027;-59
2022/12/21 06:13:06;;;;;;;;;;;;;;;8.05;62.24;100006.88;5037832;28;19960;-59
2022/12/21 06:15:31;;;;;;;;;;;;;;;8.14;62.26;100011.09;5048014;28;19932;-59
2022/12/21 06:17:56;;;;;;;;;;;;;;;8.00;62.53;100013.94;5037478;28;19925;-59
2022/12/21 06:20:21;;;;;;;;;;;;;;;7.92;62.79;100002.75;5035311;28;19925;-59
2022/12/21 06:22:47;;;;;;;;;;;;;;;7.90;62.86;100001.91;5035519;28;19921;-59
2022/12/21 06:25:12;;;;;;;;;;;;;;;7.87;63.11;100004.56;5037757;28;19987;-59
2022/12/21 06:27:38;;;;;;;;;;;;;;;7.84;63.09;100002.88;5055122;28;19956;-59
2022/12/21 06:30:03;;;;;;;;;;;;;;;7.90;63.00;100000.16;5045351;28;19925;-59
2022/12/21 06:32:29;;;;;;;;;;;;;;;7.85;63.04;100001.97;5042772;28;19924;-60
2022/12/21 06:34:54;;;;;;;;;;;;;;;7.84;63.22;100007.25;5043665;28;21892;-58
2022/12/21 06:37:20;;;;;;;;;;;;;;;7.79;63.38;100006.47;5046607;28;20374;-58
2022/12/21 06:39:45;;;;;;;;;;;;;;;7.83;63.37;100005.53;5046082;28;19929;-60
2022/12/21 06:42:10;;;;;;;;;;;;;;;7.72;63.69;100007.44;5038685;28;19978;-59
2022/12/21 06:44:35;;;;;;;;;;;;;;;7.74;63.49;100006.53;5038897;28;19924;-59
2022/12/21 06:47:01;;;;;;;;;;;;;;;7.69;63.92;100002.25;5045553;28;19960;-59
2022/12/21 06:49:26;;;;;;;;;;;;;;;7.72;63.76;100007.44;5034630;28;19967;-59
2022/12/21 06:51:51;;;;;;;;;;;;;;;7.79;63.68;100009.06;5033612;28;19976;-59
2022/12/21 06:54:17;;;;;;;;;;;;;;;7.73;63.81;100014.38;5035175;28;19925;-59
2022/12/21 06:56:42;;;;;;;;;;;;;;;7.65;64.13;100012.75;5034336;28;20015;-59
2022/12/21 06:59:08;;;;;;;;;;;;;;;7.71;63.97;100021.41;5034679;28;19925;-59
2022/12/21 07:01:34;;;;;;;;;;;;;;;7.73;63.93;100019.63;5033341;28;19921;-59
2022/12/21 07:04:00;;;;;;;;;;;;;;;7.63;63.87;100014.53;5047587;28;19921;-59
2022/12/21 07:06:26;;;;;;;;;;;;;;;7.67;63.99;100015.38;5054593;28;19965;-59
2022/12/21 07:08:52;;;;;;;;;;;;;;;7.83;63.54;100008.13;5050814;28;19921;-59
2022/12/21 07:11:18;;;;;;;;;;;;;;;7.85;63.34;100019.41;5040100;28;19947;-59
2022/12/21 07:13:45;;;;;;;;;;;;;;;7.80;63.48;100018.63;5041038;28;20436;-59
2022/12/21 07:16:11;;;;;;;;;;;;;;;7.85;63.40;100014.19;5039742;28;20372;-59
2022/12/21 07:18:36;;;;;;;;;;;;;;;7.87;63.54;100013.28;5041723;28;19921;-59
2022/12/21 07:21:03;;;;;;;;;;;;;;;7.93;63.40;100014.94;5047233;28;19921;-59
2022/12/21 07:23:29;;;;;;;;;;;;;;;7.96;63.24;100007.03;5037689;28;19947;-59
2022/12/21 07:25:54;;;;;;;;;;;;;;;7.97;63.18;100007.91;5049430;28;19953;-60
2022/12/21 07:28:21;;;;;;;;;;;;;;;7.89;63.19;100010.63;5048031;28;19972;-59
2022/12/21 07:30:48;;;;;;;;;;;;;;;7.91;63.38;100011.50;5036755;28;19943;-60
2022/12/21 07:33:16;;;;;;;;;;;;;;;7.85;63.40;100009.81;5037288;28;19925;-58
2022/12/21 07:35:41;;;;;;;;;;;;;;;7.85;63.57;100012.44;5038290;28;19952;-59
2022/12/21 07:38:07;;;;;;;;;;;;;;;7.76;63.83;100015.22;5050651;28;20295;-58
2022/12/21 07:40:32;;;;;;;;;;;;;;;7.74;63.95;100010.88;5045307;28;19928;-58
2022/12/21 07:42:57;;;;;;;;;;;;;;;7.81;63.80;100013.38;5049589;28;20403;-60
2022/12/21 07:45:23;;;;;;;;;;;;;;;7.81;63.64;100007.28;5048675;28;19932;-59
2022/12/21 07:47:48;;;;;;;;;;;;;;;7.88;63.55;100008.91;5050186;28;19929;-59
2022/12/21 07:50:13;;;;;;;;;;;;;;;7.88;63.57;100022.00;5046901;28;19961;-60
2022/12/21 07:52:39;;;;;;;;;;;;;;;7.79;63.99;100007.31;5036985;28;19929;-58
2022/12/21 07:55:05;;;;;;;;;;;;;;;7.73;64.16;100017.00;5034567;28;19947;-59
2022/12/21 07:57:30;;;;;;;;;;;;;;;7.79;64.19;100009.06;5031023;28;19932;-59
2022/12/21 07:59:56;;;;;;;;;;;;;;;7.79;64.00;100011.69;5037964;28;19925;-59
2022/12/21 08:02:21;;;;;;;;;;;;;;;7.90;63.85;100015.00;5031565;28;20717;-58
2022/12/21 08:04:46;;;;;;;;;;;;;;;7.94;63.71;100018.41;5045939;28;19957;-60
2022/12/21 08:07:12;;;;;;;;;;;;;;;7.90;63.91;100020.22;5046748;28;19927;-59
2022/12/21 08:09:37;;;;;;;;;;;;;;;7.72;64.42;100024.00;5046731;28;20028;-59
2022/12/21 08:12:02;;;;;;;;;;;;;;;7.87;63.96;100020.28;5046168;28;20346;-59
2022/12/21 08:14:28;;;;;;;;;;;;;;;7.82;64.23;100015.13;5036334;28;19929;-59
2022/12/21 08:16:54;;;;;;;;;;;;;;;7.50;64.93;100023.47;5033734;28;20331;-58
2022/12/21 08:19:19;;;;;;;;;;;;;;;7.29;65.81;100026.38;5034587;28;19925;-58
2022/12/21 08:21:44;;;;;;;;;;;;;;;7.62;65.15;100011.94;5034244;28;19925;-59
2022/12/21 08:24:10;;;;;;;;;;;;;;;7.64;64.97;100020.63;5040943;28;19924;-59
2022/12/21 08:26:36;;;;;;;;;;;;;;;7.59;65.16;100023.31;5049810;28;19924;-58
2022/12/21 08:29:01;;;;;;;;;;;;;;;7.70;65.15;100020.56;5048476;28;20332;-60
2022/12/21 08:31:27;;;;;;;;;;;;;;;7.64;64.79;100018.00;5046894;28;19950;-60
2022/12/21 08:33:52;;;;;;;;;;;;;;;7.49;65.54;100021.72;5053307;28;19950;-59
2022/12/21 08:36:20;;;;;;;;;;;;;;;7.54;65.56;100022.53;5042775;28;19921;-58
2022/12/21 08:38:45;;;;;;;;;;;;;;;7.58;65.32;100026.84;5039452;28;19921;-60
2022/12/21 08:41:11;;;;;;;;;;;;;;;7.60;65.40;100018.94;5042531;28;19943;-59
2022/12/21 08:43:36;;;;;;;;;;;;;;;7.62;65.28;100023.28;5053638;28;19960;-59
2022/12/21 08:46:03;;;;;;;;;;;;;;;7.53;65.70;100030.38;5052252;28;20304;-59
2022/12/21 08:48:28;;;;;;;;;;;;;;;7.63;65.49;100024.13;5048891;28;19937;-59
2022/12/21 08:50:54;;;;;;;;;;;;;;;7.68;65.42;100027.53;5039245;28;20415;-60
2022/12/21 08:53:19;;;;;;;;;;;;;;;7.65;65.33;100035.44;5038153;28;19933;-59
2022/12/21 08:55:45;;;;;;;;;;;;;;;7.40;66.10;100032.31;5046503;28;20278;-59
2022/12/21 08:58:10;;;;;;;;;;;;;;;7.36;66.41;100035.84;5046952;28;19932;-59
2022/12/21 09:00:36;;;;;;;;;;;;;;;7.56;65.93;100036.44;5040007;28;19970;-58
2022/12/21 09:03:03;;;;;;;;;;;;;;;7.57;65.86;100032.91;5045731;28;20384;-59
2022/12/21 09:05:29;;;;;;;;;;;;;;;7.59;65.96;100028.56;5038821;28;20023;-60
2022/12/21 09:07:54;;;;;;;;;;;;;;;7.61;65.83;100036.34;5037503;28;19979;-58
2022/12/21 09:10:20;;;;;;;;;;;;;;;7.60;66.09;100027.66;5039437;28;19925;-58
2022/12/21 09:12:45;;;;;;;;;;;;;;;7.53;66.18;100033.84;5053008;28;19924;-59
2022/12/21 09:15:10;;;;;;;;;;;;;;;7.72;65.82;100026.59;5038605;28;19925;-60
2022/12/21 09:17:35;;;;;;;;;;;;;;;7.63;66.04;100032.84;5042419;28;19925;-60
2022/12/21 09:20:01;;;;;;;;;;;;;;;7.79;65.74;100019.53;5046366;28;19921;-59
2022/12/21 09:22:26;;;;;;;;;;;;;;;7.58;66.43;100023.31;5051153;28;20012;-59
2022/12/21 09:24:51;;;;;;;;;;;;;;;7.84;65.83;100020.31;5044700;28;19921;-59
2022/12/21 09:27:17;;;;;;;;;;;;;;;7.82;65.42;100014.22;5045836;28;19967;-60
2022/12/21 09:29:42;;;;;;;;;;;;;;;7.89;65.56;100010.63;5036789;28;19948;-59
2022/12/21 09:32:07;;;;;;;;;;;;;;;7.92;65.68;100017.56;5028893;28;19925;-60
2022/12/21 09:34:33;;;;;;;;;;;;;;;7.87;65.46;100025.50;5037605;28;19978;-60
2022/12/21 09:36:59;;;;;;;;;;;;;;;7.90;65.79;100018.47;5036272;28;20012;-59
2022/12/21 09:39:24;;;;;;;;;;;;;;;7.90;65.62;100013.25;5034728;28;20012;-60
2022/12/21 09:42:09;;;;;;;;;;;;;;;8.14;65.07;100014.56;5037872;28;20036;-60
2022/12/21 09:44:39;;;;;;;;;;;;;;;8.14;64.85;100006.72;5047651;28;19928;-60
2022/12/21 09:47:09;;;;;;;;;;;;;;;8.07;65.03;99994.63;5048115;28;19921;-60
2022/12/21 09:49:34;;;;;;;;;;;;;;;8.08;65.14;100000.72;5037778;28;20011;-59
2022/12/21 09:52:01;;;;;;;;;;;;;;;8.04;65.21;100004.28;5036792;28;20024;-58
2022/12/21 09:54:29;;;;;;;;;;;;;;;8.17;64.70;100000.56;5038609;28;19925;-59
2022/12/21 09:56:56;;;;;;;;;;;;;;;8.08;65.08;99996.34;5037888;28;20377;-59
2022/12/21 09:59:21;;;;;;;;;;;;;;;8.21;64.97;99990.91;5038194;28;19921;-59
2022/12/21 10:02:07;;;;;;;;;;;;;;;8.22;64.76;99983.03;5043891;28;19917;-60
2022/12/21 10:04:32;;;;;;;;;;;;;;;8.26;64.72;99979.47;5053437;28;19956;-60
2022/12/21 10:07:10;;;;;;;;;;;;;;;8.25;64.69;99982.09;5039867;28;20356;-60
2022/12/21 10:09:45;;;;;;;;;;;;;;;8.27;64.71;99985.56;5040496;28;20258;-59
2022/12/21 10:12:29;;;;;;;;;;;;;;;8.39;64.25;99985.38;5038329;28;19923;-59
2022/12/21 10:15:18;;;;;;;;;;;;;;;8.14;65.13;99980.56;5035664;28;19964;-59
2022/12/21 10:18:07;;;;;;;;;;;;;;;8.20;64.95;99984.81;5034275;28;20526;-59
2022/12/21 10:20:41;;;;;;;;;;;;;;;8.31;64.76;99987.22;5038838;28;19917;-59
2022/12/21 10:23:20;;;;;;;;;;;;;;;8.34;64.66;99993.28;5034586;28;19975;-59
2022/12/21 10:25:52;;;;;;;;;;;;;;;8.37;64.78;99989.75;5034770;28;19963;-60
2022/12/21 10:28:17;;;;;;;;;;;;;;;8.46;64.50;99994.84;5050628;28;19917;-59
2022/12/21 10:30:45;;;;;;;;;;;;;;;8.48;64.31;99990.41;5055359;28;20395;-59
2022/12/21 10:33:11;;;;;;;;;;;;;;;8.35;64.82;99988.91;5055263;28;19931;-59
2022/12/21 10:35:38;;;;;;;;;;;;;;;8.29;65.10;99984.63;5055174;28;19971;-59
2022/12/21 10:38:14;;;;;;;;;;;;;;;8.33;64.92;99985.44;5055097;28;19916;-59
2022/12/21 10:40:41;;;;;;;;;;;;;;;8.41;64.89;99983.56;5054939;28;20303;-59
2022/12/21 10:43:09;;;;;;;;;;;;;;;8.49;64.65;99979.03;5055147;28;19917;-59
2022/12/21 10:45:34;;;;;;;;;;;;;;;8.48;64.78;99981.69;5055057;28;19971;-59
2022/12/21 10:47:59;;;;;;;;;;;;;;;8.45;64.68;99963.44;5054424;28;19956;-59
2022/12/21 10:50:30;;;;;;;;;;;;;;;8.61;64.23;99959.63;5054940;28;19958;-59
2022/12/21 10:52:56;;;;;;;;;;;;;;;8.48;64.63;99961.63;5053289;28;20323;-59
2022/12/21 10:55:21;;;;;;;;;;;;;;;8.59;64.45;99957.03;5054393;28;19925;-60
2022/12/21 10:57:53;;;;;;;;;;;;;;;8.69;64.09;99960.31;5054804;28;20267;-60
2022/12/21 11:00:26;;;;;;;;;;;;;;;8.67;63.86;99969.13;5054817;28;20388;-59
2022/12/21 11:02:52;;;;;;;;;;;;;;;8.54;64.22;99973.75;5054908;28;20012;-60
2022/12/21 11:05:33;;;;;;;;;;;;;;;8.33;65.10;99975.81;5054639;28;20376;-60
2022/12/21 11:08:10;;;;;;;;;;;;;;;8.32;65.28;99974.09;5054959;28;20008;-60
2022/12/21 11:10:36;;;;;;;;;;;;;;;8.38;64.98;99965.31;5054554;28;19917;-59
2022/12/21 11:13:04;;;;;;;;;;;;;;;8.20;65.55;99968.25;5054771;28;19920;-60
2022/12/21 11:15:29;;;;;;;;;;;;;;;8.18;65.58;99975.25;5049196;28;19925;-60
2022/12/21 11:17:55;;;;;;;;;;;;;;;8.07;66.10;99985.94;5043437;28;19920;-60
2022/12/21 11:20:20;;;;;;;;;;;;;;;8.02;66.65;99985.13;5051993;28;19965;-60
2022/12/21 11:22:47;;;;;;;;;;;;;;;7.88;67.23;99978.38;5049166;28;19925;-60
2022/12/21 11:25:14;;;;;;;;;;;;;;;7.89;67.50;99979.25;5053689;28;20273;-59
2022/12/21 11:27:43;;;;;;;;;;;;;;;8.11;66.96;99982.38;5050954;28;19953;-60
2022/12/21 11:30:16;;;;;;;;;;;;;;;8.05;67.00;99980.69;5054090;28;19921;-59
2022/12/21 11:32:43;;;;;;;;;;;;;;;8.10;66.59;99973.66;5053885;28;20386;-60
2022/12/21 11:35:22;;;;;;;;;;;;;;;8.12;66.78;99984.09;5051681;28;19921;-60
2022/12/21 11:37:52;;;;;;;;;;;;;;;8.01;67.24;99989.50;5051886;28;19943;-60
2022/12/21 11:40:22;;;;;;;;;;;;;;;8.03;66.89;99992.09;5048155;28;19924;-59
2022/12/21 11:42:53;;;;;;;;;;;;;;;8.17;66.43;99994.47;5033991;28;19921;-59
2022/12/21 11:45:23;;;;;;;;;;;;;;;7.94;66.92;100006.22;5033792;28;19917;-59
2022/12/21 11:48:12;;;;;;;;;;;;;;;7.98;67.00;100002.66;5034056;28;19921;-59
2022/12/21 11:50:47;;;;;;;;;;;;;;;7.94;67.23;100006.22;5023417;28;20383;-59
2022/12/21 11:53:23;;;;;;;;;;;;;;;8.04;66.85;99999.91;5034052;28;20019;-59
2022/12/21 11:56:04;;;;;;;;;;;;;;;7.80;67.75;100000.34;5033681;28;20023;-59
2022/12/21 11:58:36;;;;;;;;;;;;;;;7.78;67.49;99987.28;5036484;28;19979;-59
2022/12/21 12:01:07;;;;;;;;;;;;;;;7.89;67.43;99980.09;5040429;28;19917;-58
2022/12/21 12:03:37;;;;;;;;;;;;;;;8.05;66.99;99985.94;5035377;28;20054;-60
2022/12/21 12:06:08;;;;;;;;;;;;;;;7.99;67.33;99983.44;5033728;28;20328;-60
2022/12/21 12:08:49;;;;;;;;;;;;;;;8.11;66.79;99969.28;5043387;28;19920;-59
2022/12/21 12:11:26;;;;;;;;;;;;;;;8.10;66.93;99967.56;5041583;28;20292;-59
2022/12/21 12:14:18;;;;;;;;;;;;;;;7.89;67.43;99961.78;5037003;28;19929;-60
2022/12/21 12:16:43;;;;;;;;;;;;;;;7.86;67.47;99953.16;5044366;28;20066;-59
2022/12/21 12:19:18;;;;;;;;;;;;;;;7.74;67.79;99954.22;5048949;28;20023;-58
2022/12/21 12:22:01;;;;;;;;;;;;;;;7.86;67.53;99955.78;5047182;28;19921;-58
2022/12/21 12:24:35;;;;;;;;;;;;;;;8.17;67.00;99944.75;5035276;28;19921;-58
2022/12/21 12:27:00;;;;;;;;;;;;;;;8.34;66.44;99950.53;5035668;28;19921;-58
2022/12/21 12:29:44;;;;;;;;;;;;;;;8.49;65.79;99949.38;5035038;28;19928;-59
2022/12/21 12:32:20;;;;;;;;;;;;;;;8.71;65.21;99955.06;5037037;28;20455;-59
2022/12/21 12:34:49;;;;;;;;;;;;;;;8.66;64.92;99951.66;5035443;28;19963;-59
2022/12/21 12:37:23;;;;;;;;;;;;;;;8.64;64.77;99955.19;5035637;28;19974;-59
2022/12/21 12:40:00;;;;;;;;;;;;;;;8.68;64.95;99948.13;5044511;28;19920;-58
2022/12/21 12:42:39;;;;;;;;;;;;;;;8.47;65.26;99952.03;5033882;28;19967;-58
2022/12/21 12:45:17;;;;;;;;;;;;;;;8.29;65.88;99952.34;5036496;28;19989;-58
2022/12/21 12:47:43;;;;;;;;;;;;;;;8.47;65.43;99945.94;5039008;28;19991;-60
2022/12/21 12:50:17;;;;;;;;;;;;;;;8.50;65.33;99949.38;5034078;28;20388;-59
2022/12/21 12:52:53;;;;;;;;;;;;;;;8.46;65.46;99942.47;5041448;28;20431;-59
2022/12/21 12:55:25;;;;;;;;;;;;;;;8.51;65.15;99958.94;5051430;28;20296;-59
2022/12/21 12:57:56;;;;;;;;;;;;;;;8.48;65.17;99953.75;5038206;28;19925;-58
2022/12/21 13:00:22;;;;;;;;;;;;;;;8.60;64.83;99953.50;5047114;28;19944;-59
2022/12/21 13:03:06;;;;;;;;;;;;;;;8.45;65.14;99964.28;5037301;28;19932;-59